createdAt,value
2018-12-25T00:00:54.891Z,5.43
2018-12-25T00:03:58.395Z,4.57
2018-12-25T00:07:01.864Z,4.67
2018-12-25T00:10:05.740Z,4.80
2018-12-25T00:13:09.291Z,5.87
2018-12-25T00:16:13.942Z,5.90
2018-12-25T00:19:17.445Z,8.50
2018-12-25T00:22:21.072Z,10.93
2018-12-25T00:25:24.716Z,11.50
2018-12-25T00:28:28.289Z,14.00
2018-12-25T00:31:32.057Z,11.93
2018-12-25T00:34:35.698Z,14.70
2018-12-25T00:37:39.318Z,8.57
2018-12-25T00:40:42.765Z,7.93
2018-12-25T00:43:46.491Z,8.03
2018-12-25T00:46:50.358Z,10.10
2018-12-25T00:49:53.905Z,9.17
2018-12-25T00:52:57.421Z,8.53
2018-12-25T00:56:01.316Z,9.17
2018-12-25T00:59:04.866Z,8.07
2018-12-25T01:02:08.339Z,12.10
2018-12-25T01:05:11.985Z,10.57
2018-12-25T01:08:15.772Z,10.77
2018-12-25T01:11:19.222Z,11.27
2018-12-25T01:14:22.714Z,17.37
2018-12-25T01:17:26.385Z,13.53
2018-12-25T01:20:30.014Z,13.63
2018-12-25T01:23:33.537Z,19.13
2018-12-25T01:26:37.293Z,13.47
2018-12-25T01:29:40.737Z,12.13
2018-12-25T01:32:44.205Z,15.00
2018-12-25T01:35:47.807Z,12.07
2018-12-25T01:38:51.363Z,18.10
2018-12-25T01:41:54.899Z,15.00
2018-12-25T01:44:58.381Z,12.03
2018-12-25T01:48:01.915Z,14.83
2018-12-25T01:51:05.562Z,12.57
2018-12-25T01:54:09.117Z,11.57
2018-12-25T01:57:12.830Z,12.57
2018-12-25T02:00:16.397Z,13.23
2018-12-25T02:03:19.923Z,10.73
2018-12-25T02:06:23.413Z,13.07
2018-12-25T02:09:26.933Z,12.93
2018-12-25T02:12:30.454Z,13.77
2018-12-25T02:15:33.930Z,12.60
2018-12-25T02:18:37.592Z,10.20
2018-12-25T02:21:41.125Z,12.27
2018-12-25T02:24:44.710Z,11.73
2018-12-25T02:27:49.538Z,9.63
2018-12-25T02:30:53.063Z,11.07
2018-12-25T02:33:56.548Z,11.43
2018-12-25T02:36:59.963Z,10.23
2018-12-25T02:40:03.721Z,10.90
2018-12-25T02:43:07.139Z,10.43
2018-12-25T02:46:10.680Z,10.80
2018-12-25T02:49:14.262Z,8.47
2018-12-25T02:52:17.732Z,11.40
2018-12-25T02:55:21.260Z,10.77
2018-12-25T02:58:24.761Z,11.17
2018-12-25T03:01:28.324Z,9.53
2018-12-25T03:04:31.887Z,7.97
2018-12-25T03:07:35.425Z,8.50
2018-12-25T03:10:39.210Z,7.43
2018-12-25T03:13:42.733Z,8.90
2018-12-25T03:16:46.321Z,7.50
2018-12-25T03:19:49.785Z,8.63
2018-12-25T03:22:53.301Z,9.80
2018-12-25T03:25:56.703Z,9.17
2018-12-25T03:29:00.214Z,11.80
2018-12-25T03:32:03.835Z,12.63
2018-12-25T03:35:07.423Z,9.00
2018-12-25T03:38:11.862Z,8.33
2018-12-25T03:41:15.405Z,9.20
2018-12-25T03:44:18.909Z,7.87
2018-12-25T03:47:22.469Z,8.63
2018-12-25T03:50:25.852Z,9.07
2018-12-25T03:53:29.404Z,9.43
2018-12-25T03:56:33.040Z,7.77
2018-12-25T03:59:36.572Z,9.33
2018-12-25T04:02:39.995Z,11.77
2018-12-25T04:05:43.392Z,11.53
2018-12-25T04:08:46.882Z,10.87
2018-12-25T04:11:50.396Z,12.30
2018-12-25T04:14:53.903Z,12.40
2018-12-25T04:17:57.394Z,11.50
2018-12-25T04:21:01.025Z,10.27
2018-12-25T04:24:04.753Z,11.47
2018-12-25T04:27:08.696Z,11.33
2018-12-25T04:30:12.219Z,13.00
2018-12-25T04:33:15.606Z,11.03
2018-12-25T04:36:18.999Z,9.73
2018-12-25T04:39:22.461Z,8.90
2018-12-25T04:42:25.820Z,11.47
2018-12-25T04:45:29.302Z,8.30
2018-12-25T04:48:32.798Z,8.80
2018-12-25T04:51:36.374Z,10.23
2018-12-25T04:54:39.821Z,10.03
2018-12-25T04:57:43.375Z,12.53
2018-12-25T05:00:46.970Z,8.73
2018-12-25T05:03:50.517Z,9.30
2018-12-25T05:06:54.035Z,8.13
2018-12-25T05:09:57.736Z,9.00
2018-12-25T05:13:01.245Z,10.43
2018-12-25T05:16:04.834Z,8.07
2018-12-25T05:19:08.541Z,7.57
2018-12-25T05:22:12.127Z,7.73
2018-12-25T05:25:15.776Z,8.30
2018-12-25T05:28:19.339Z,9.43
2018-12-25T05:31:23.001Z,7.30
2018-12-25T05:34:26.699Z,6.27
2018-12-25T05:37:31.237Z,7.43
2018-12-25T05:40:34.979Z,6.50
2018-12-25T05:43:38.678Z,7.17
2018-12-25T05:46:42.382Z,8.53
2018-12-25T05:49:46.935Z,7.50
2018-12-25T05:52:51.502Z,8.53
2018-12-25T05:55:55.103Z,7.27
2018-12-25T05:58:58.602Z,7.67
2018-12-25T06:02:02.228Z,8.77
2018-12-25T06:05:06.074Z,7.53
2018-12-25T06:08:09.766Z,8.43
2018-12-25T06:11:13.377Z,7.73
2018-12-25T06:14:17.112Z,7.47
2018-12-25T06:17:20.809Z,7.27
2018-12-25T06:20:24.499Z,7.03
2018-12-25T06:23:28.007Z,8.47
2018-12-25T06:26:31.612Z,6.63
2018-12-25T06:29:35.137Z,7.50
2018-12-25T06:32:38.885Z,8.70
2018-12-25T06:35:42.428Z,6.43
2018-12-25T06:38:46.045Z,7.40
2018-12-25T06:41:49.700Z,12.60
2018-12-25T06:44:53.320Z,8.93
2018-12-25T06:47:57.021Z,10.80
2018-12-25T06:51:04.022Z,9.10
2018-12-25T06:54:04.234Z,9.77
2018-12-25T06:57:07.808Z,8.17
2018-12-25T07:00:11.346Z,7.67
2018-12-25T07:03:14.925Z,7.43
2018-12-25T07:06:18.530Z,9.00
2018-12-25T07:09:22.187Z,6.83
2018-12-25T07:12:25.769Z,7.80
2018-12-25T07:15:33.254Z,8.73
2018-12-25T07:18:32.872Z,10.53
2018-12-25T07:21:36.478Z,8.80
2018-12-25T07:24:40.216Z,9.40
2018-12-25T07:27:43.621Z,9.33
2018-12-25T07:30:47.265Z,8.30
2018-12-25T07:33:50.851Z,10.17
2018-12-25T07:36:54.429Z,10.43
2018-12-25T07:39:58.301Z,10.23
2018-12-25T07:43:01.957Z,9.83
2018-12-25T07:46:05.649Z,9.77
2018-12-25T07:49:09.259Z,8.87
2018-12-25T07:52:12.982Z,11.90
2018-12-25T07:55:16.534Z,21.90
2018-12-25T07:58:20.138Z,22.30
2018-12-25T08:01:23.850Z,15.87
2018-12-25T08:04:27.462Z,19.87
2018-12-25T08:07:31.042Z,20.13
2018-12-25T08:10:34.751Z,17.03
2018-12-25T08:13:38.381Z,15.40
2018-12-25T08:16:41.940Z,14.60
2018-12-25T08:19:45.603Z,14.43
2018-12-25T08:22:49.209Z,11.87
2018-12-25T08:25:52.787Z,11.37
2018-12-25T08:28:56.353Z,11.93
2018-12-25T08:31:59.946Z,10.00
2018-12-25T08:35:03.636Z,9.43
2018-12-25T08:38:07.210Z,10.87
2018-12-25T08:41:11.792Z,7.63
2018-12-25T08:44:15.397Z,9.30
2018-12-25T08:47:18.897Z,9.50
2018-12-25T08:50:22.599Z,10.70
2018-12-25T08:53:26.301Z,8.07
2018-12-25T08:56:29.900Z,9.90
2018-12-25T08:59:33.502Z,9.70
2018-12-25T09:02:36.994Z,9.53
2018-12-25T09:05:40.611Z,12.73
2018-12-25T09:08:44.245Z,13.67
2018-12-25T09:11:47.848Z,11.73
2018-12-25T09:14:51.374Z,11.47
2018-12-25T09:17:55.229Z,10.90
2018-12-25T09:20:58.847Z,11.03
2018-12-25T09:24:02.458Z,10.27
2018-12-25T09:27:06.160Z,10.20
2018-12-25T09:30:09.647Z,11.17
2018-12-25T09:33:13.253Z,11.53
2018-12-25T09:36:16.842Z,9.00
2018-12-25T09:39:21.760Z,9.67
2018-12-25T09:42:25.296Z,6.63
2018-12-25T09:45:28.939Z,8.43
2018-12-25T09:48:32.486Z,7.77
2018-12-25T09:51:36.093Z,7.67
2018-12-25T09:54:39.605Z,6.77
2018-12-25T09:57:43.201Z,7.73
2018-12-25T10:00:46.811Z,7.13
2018-12-25T10:03:50.440Z,7.37
2018-12-25T10:06:53.927Z,8.27
2018-12-25T10:09:57.909Z,7.23
2018-12-25T10:13:01.537Z,9.97
2018-12-25T10:16:05.229Z,8.37
2018-12-25T10:19:10.155Z,6.40
2018-12-25T10:22:13.763Z,5.77
2018-12-25T10:25:17.366Z,7.27
2018-12-25T10:28:24.862Z,7.90
2018-12-25T10:31:28.233Z,9.43
2018-12-25T10:34:31.968Z,8.10
2018-12-25T10:37:35.464Z,7.43
2018-12-25T10:40:38.889Z,6.13
2018-12-25T10:43:42.584Z,6.57
2018-12-25T10:46:46.243Z,6.60
2018-12-25T10:49:49.759Z,11.37
2018-12-25T10:52:53.395Z,8.60
2018-12-25T10:55:57.288Z,10.30
2018-12-25T10:59:00.804Z,8.70
2018-12-25T11:02:04.635Z,8.13
2018-12-25T11:05:15.695Z,8.63
2018-12-25T11:08:20.611Z,9.00
2018-12-25T11:11:24.150Z,11.10
2018-12-25T11:14:27.548Z,11.33
2018-12-25T11:17:31.022Z,10.77
2018-12-25T11:20:35.230Z,12.97
2018-12-25T11:23:39.247Z,10.60
2018-12-25T11:26:42.753Z,9.80
2018-12-25T11:29:46.358Z,9.03
2018-12-25T11:32:50.849Z,8.67
2018-12-25T11:35:54.437Z,11.00
2018-12-25T11:38:58.085Z,12.30
2018-12-25T11:42:01.740Z,12.13
2018-12-25T11:45:05.378Z,13.13
2018-12-25T11:48:09.015Z,9.53
2018-12-25T11:51:12.510Z,8.63
2018-12-25T11:54:15.908Z,8.50
2018-12-25T11:57:20.394Z,7.37
2018-12-25T12:00:23.841Z,8.30
2018-12-25T12:03:29.052Z,8.43
2018-12-25T12:06:32.895Z,11.23
2018-12-25T12:09:36.685Z,7.70
2018-12-25T12:12:40.202Z,8.70
2018-12-25T12:15:43.885Z,9.50
2018-12-25T12:18:47.487Z,8.33
2018-12-25T12:21:51.089Z,8.07
2018-12-25T12:24:54.770Z,10.30
2018-12-25T12:27:58.244Z,10.40
2018-12-25T12:31:01.951Z,8.63
2018-12-25T12:34:05.641Z,7.33
2018-12-25T12:37:12.118Z,7.43
2018-12-25T12:40:15.835Z,9.80
2018-12-25T12:43:20.213Z,9.53
2018-12-25T12:46:23.882Z,8.43
2018-12-25T12:49:28.720Z,9.20
2018-12-25T12:52:32.366Z,6.70
2018-12-25T12:55:37.793Z,7.50
2018-12-25T12:58:43.221Z,7.03
2018-12-25T13:01:48.186Z,7.40
2018-12-25T13:04:51.674Z,6.97
2018-12-25T13:07:55.104Z,7.07
2018-12-25T13:10:58.583Z,7.87
2018-12-25T13:14:01.979Z,6.80
2018-12-25T13:17:05.451Z,6.03
2018-12-25T13:20:09.149Z,7.77
2018-12-25T13:23:12.690Z,6.07
2018-12-25T13:26:16.064Z,6.10
2018-12-25T13:29:19.497Z,8.30
2018-12-25T13:32:22.973Z,6.63
2018-12-25T13:35:26.448Z,7.33
2018-12-25T13:38:30.137Z,6.77
2018-12-25T13:41:33.764Z,7.90
2018-12-25T13:44:37.299Z,6.10
2018-12-25T13:47:40.949Z,10.43
2018-12-25T13:50:44.303Z,5.53
2018-12-25T13:53:47.910Z,6.70
2018-12-25T13:56:51.482Z,7.90
2018-12-25T13:59:55.048Z,6.33
2018-12-25T14:02:58.519Z,7.00
2018-12-25T14:06:02.128Z,6.70
2018-12-25T14:09:07.576Z,6.53
2018-12-25T14:12:11.104Z,5.80
2018-12-25T14:15:14.552Z,5.93
2018-12-25T14:18:18.009Z,6.40
2018-12-25T14:21:21.510Z,7.03
2018-12-25T14:24:25.053Z,7.13
2018-12-25T14:27:28.693Z,11.07
2018-12-25T14:30:32.315Z,8.70
2018-12-25T14:33:35.841Z,6.53
2018-12-25T14:36:39.468Z,8.40
2018-12-25T14:39:44.087Z,6.63
2018-12-25T14:42:47.653Z,9.13
2018-12-25T14:45:51.183Z,7.63
2018-12-25T14:48:59.210Z,7.53
2018-12-25T14:52:02.740Z,10.87
2018-12-25T14:55:06.477Z,24.63
2018-12-25T14:58:10.124Z,11.73
2018-12-25T15:01:13.717Z,11.70
2018-12-25T15:04:17.366Z,13.13
2018-12-25T15:07:21.063Z,17.80
2018-12-25T15:10:24.871Z,12.03
2018-12-25T15:13:28.633Z,13.83
2018-12-25T15:16:32.219Z,23.30
2018-12-25T15:19:36.144Z,11.53
2018-12-25T15:22:40.722Z,9.77
2018-12-25T15:25:43.550Z,9.57
2018-12-25T15:28:47.118Z,10.53
2018-12-25T15:31:50.667Z,11.30
2018-12-25T15:34:55.936Z,11.20
2018-12-25T15:37:59.324Z,11.57
2018-12-25T15:41:02.743Z,13.40
2018-12-25T15:44:06.194Z,13.37
2018-12-25T15:47:09.648Z,12.03
2018-12-25T15:50:13.257Z,13.60
2018-12-25T15:53:16.718Z,19.40
2018-12-25T15:56:20.259Z,20.60
2018-12-25T15:59:23.673Z,20.07
2018-12-25T16:02:27.247Z,17.70
2018-12-25T16:05:30.759Z,14.53
2018-12-25T16:08:34.153Z,14.37
2018-12-25T16:11:37.887Z,17.40
2018-12-25T16:14:41.349Z,20.10
2018-12-25T16:17:44.896Z,20.60
2018-12-25T16:20:48.358Z,15.33
2018-12-25T16:23:51.781Z,14.37
2018-12-25T16:26:55.175Z,13.30
2018-12-25T16:29:58.679Z,16.80
2018-12-25T16:33:02.097Z,14.90
2018-12-25T16:36:05.627Z,19.40
2018-12-25T16:39:09.160Z,22.77
2018-12-25T16:42:12.689Z,16.07
2018-12-25T16:45:16.197Z,17.53
2018-12-25T16:48:19.667Z,18.00
2018-12-25T16:51:23.198Z,22.53
2018-12-25T16:54:26.816Z,21.33
2018-12-25T16:57:30.341Z,23.23
2018-12-25T17:00:33.706Z,22.00
2018-12-25T17:03:37.252Z,22.77
2018-12-25T17:06:40.864Z,22.23
2018-12-25T17:09:44.390Z,26.23
2018-12-25T17:12:47.916Z,22.00
2018-12-25T17:15:51.418Z,22.07
2018-12-25T17:18:55.179Z,23.07
2018-12-25T17:21:59.494Z,17.87
2018-12-25T17:25:03.125Z,17.80
2018-12-25T17:28:07.265Z,17.90
2018-12-25T17:31:10.929Z,18.90
2018-12-25T17:34:14.577Z,22.73
2018-12-25T17:37:18.047Z,18.77
2018-12-25T17:40:21.748Z,17.80
2018-12-25T17:43:25.412Z,21.33
2018-12-25T17:46:28.978Z,18.13
2018-12-25T17:49:32.567Z,18.23
2018-12-25T17:52:36.804Z,29.37
2018-12-25T17:55:40.526Z,25.07
2018-12-25T17:58:44.256Z,18.83
2018-12-25T18:01:48.153Z,19.47
2018-12-25T18:04:52.166Z,19.33
2018-12-25T18:07:55.768Z,18.77
2018-12-25T18:11:00.362Z,20.83
2018-12-25T18:14:04.258Z,20.57
2018-12-25T18:17:07.683Z,22.83
2018-12-25T18:20:11.105Z,22.23
2018-12-25T18:23:14.721Z,21.70
2018-12-25T18:26:18.284Z,24.47
2018-12-25T18:29:22.186Z,22.80
2018-12-25T18:32:25.712Z,20.87
2018-12-25T18:35:30.241Z,20.17
2018-12-25T18:38:33.698Z,20.93
2018-12-25T18:41:37.207Z,20.00
2018-12-25T18:44:40.763Z,20.30
2018-12-25T18:47:44.350Z,21.47
2018-12-25T18:50:47.759Z,23.03
2018-12-25T18:53:51.313Z,21.40
2018-12-25T18:56:54.861Z,20.47
2018-12-25T18:59:58.265Z,20.03
2018-12-25T19:03:01.866Z,21.03
2018-12-25T19:06:05.496Z,24.57
2018-12-25T19:09:08.884Z,19.80
2018-12-25T19:12:12.395Z,21.37
2018-12-25T19:15:23.767Z,21.47
2018-12-25T19:18:27.499Z,22.17
2018-12-25T19:21:31.394Z,21.90
2018-12-25T19:24:36.418Z,23.90
2018-12-25T19:27:38.473Z,18.43
2018-12-25T19:30:42.171Z,18.30
2018-12-25T19:33:45.707Z,19.63
2018-12-25T19:36:49.329Z,22.03
2018-12-25T19:39:52.978Z,20.70
2018-12-25T19:42:56.469Z,20.77
2018-12-25T19:46:00.041Z,20.63
2018-12-25T19:49:03.613Z,21.33
2018-12-25T19:52:07.201Z,22.43
2018-12-25T19:55:10.680Z,23.90
2018-12-25T19:58:14.404Z,22.43
2018-12-25T20:01:17.996Z,21.60
2018-12-25T20:04:37.935Z,21.50
2018-12-25T20:10:07.706Z,21.10
2018-12-25T20:13:24.166Z,23.10
2018-12-25T20:16:45.761Z,24.30
2018-12-25T20:20:10.137Z,23.03
2018-12-25T20:24:26.558Z,22.47
2018-12-25T20:27:58.796Z,23.27
2018-12-25T20:32:47.163Z,20.97
2018-12-25T20:36:43.859Z,20.40
2018-12-25T20:40:07.195Z,23.33
2018-12-25T20:44:20.453Z,23.93
2018-12-25T20:47:57.919Z,22.93
2018-12-25T20:51:13.218Z,20.30
2018-12-25T20:54:35.622Z,21.27
2018-12-25T20:57:54.305Z,19.77
2018-12-25T21:01:09.495Z,21.87
2018-12-25T21:05:22.675Z,21.03
2018-12-25T21:12:51.760Z,21.33
2018-12-25T21:17:02.898Z,23.50
2018-12-25T21:20:31.373Z,21.50
2018-12-25T21:23:46.180Z,20.00
2018-12-25T21:27:01.003Z,18.33
2018-12-25T21:30:07.896Z,22.13
2018-12-25T21:33:11.595Z,16.07
2018-12-25T21:36:16.323Z,17.73
2018-12-25T21:39:20.892Z,18.03
2018-12-25T21:42:24.327Z,17.53
2018-12-25T21:45:28.284Z,17.00
2018-12-25T21:48:31.817Z,17.97
2018-12-25T21:51:35.288Z,17.70
2018-12-25T21:54:38.756Z,18.50
2018-12-25T21:57:42.291Z,19.20
2018-12-25T22:00:45.914Z,16.97
2018-12-25T22:03:49.500Z,18.03
2018-12-25T22:06:53.072Z,16.57
2018-12-25T22:09:56.700Z,18.47
2018-12-25T22:13:00.284Z,18.40
2018-12-25T22:16:03.939Z,18.10
2018-12-25T22:19:07.473Z,17.20
2018-12-25T22:22:11.202Z,15.13
2018-12-25T22:25:14.841Z,17.57
2018-12-25T22:28:18.467Z,23.03
2018-12-25T22:31:22.022Z,19.30
2018-12-25T22:34:25.654Z,19.73
2018-12-25T22:37:29.169Z,20.13
2018-12-25T22:40:33.772Z,20.83
2018-12-25T22:43:37.406Z,19.57
2018-12-25T22:46:40.915Z,19.47
2018-12-25T22:49:44.471Z,18.07
2018-12-25T22:52:48.934Z,17.37
2018-12-25T22:55:52.503Z,17.80
2018-12-25T22:58:56.020Z,18.90
2018-12-25T23:01:59.631Z,16.90
2018-12-25T23:05:03.265Z,18.87
2018-12-25T23:08:06.942Z,17.10
2018-12-25T23:11:10.453Z,20.37
2018-12-25T23:14:14.004Z,18.30
2018-12-25T23:17:17.448Z,20.33
2018-12-25T23:20:28.473Z,20.33
2018-12-25T23:23:25.612Z,18.43
2018-12-25T23:26:29.183Z,18.13
2018-12-25T23:29:33.701Z,17.70
2018-12-25T23:32:37.316Z,17.53
2018-12-25T23:35:40.862Z,17.50
2018-12-25T23:38:44.331Z,19.63
2018-12-25T23:41:47.927Z,18.77
2018-12-25T23:44:51.542Z,18.50
2018-12-25T23:47:55.154Z,20.37
2018-12-25T23:50:58.758Z,19.50
2018-12-25T23:54:03.450Z,22.33
2018-12-25T23:57:07.059Z,19.27
